createdAt,value
2023-05-03T00:02:26.758Z,71.50
2023-05-03T00:04:54.609Z,71.92
2023-05-03T00:07:22.727Z,71.92
2023-05-03T00:09:50.255Z,72.25
2023-05-03T00:12:17.812Z,72.31
2023-05-03T00:14:47.809Z,72.18
2023-05-03T00:17:15.418Z,72.33
2023-05-03T00:19:42.984Z,72.79
2023-05-03T00:22:10.561Z,74.79
2023-05-03T00:24:38.085Z,75.78
2023-05-03T00:27:06.594Z,75.95
2023-05-03T00:29:34.190Z,74.28
2023-05-03T00:32:03.057Z,73.01
2023-05-03T00:34:30.698Z,73.86
2023-05-03T00:36:58.235Z,73.85
2023-05-03T00:39:25.867Z,74.06
2023-05-03T00:41:57.906Z,74.33
2023-05-03T00:44:25.492Z,73.33
2023-05-03T00:46:53.415Z,72.69
2023-05-03T00:49:22.787Z,72.24
2023-05-03T00:51:51.537Z,72.36
2023-05-03T00:54:19.052Z,72.22
2023-05-03T00:56:51.672Z,72.97
2023-05-03T00:59:20.668Z,73.41
2023-05-03T01:01:50.311Z,72.67
2023-05-03T01:04:18.513Z,72.63
2023-05-03T01:06:56.739Z,72.22
2023-05-03T01:09:33.895Z,72.06
2023-05-03T01:12:15.306Z,71.92
2023-05-03T01:14:52.939Z,71.92
2023-05-03T01:17:26.108Z,72.04
2023-05-03T01:19:57.761Z,75.08
2023-05-03T01:22:39.700Z,74.71
2023-05-03T01:25:10.354Z,74.34
2023-05-03T01:27:38.601Z,74.94
2023-05-03T01:30:08.100Z,76.64
2023-05-03T01:32:47.525Z,76.79
2023-05-03T01:35:21.759Z,75.18
2023-05-03T01:37:50.706Z,74.28
2023-05-03T01:40:22.111Z,73.96
2023-05-03T01:42:51.191Z,73.56
2023-05-03T01:45:19.320Z,73.50
2023-05-03T01:47:46.939Z,73.21
2023-05-03T01:50:14.524Z,73.41
2023-05-03T01:52:42.033Z,74.58
2023-05-03T01:55:10.564Z,74.14
2023-05-03T01:57:39.408Z,75.06
2023-05-03T02:00:08.977Z,76.26
2023-05-03T02:02:36.567Z,76.63
2023-05-03T02:05:04.233Z,77.24
2023-05-03T02:07:31.744Z,77.61
2023-05-03T02:09:59.206Z,76.81
2023-05-03T02:12:26.762Z,76.79
2023-05-03T02:14:55.934Z,76.28
2023-05-03T02:17:26.375Z,77.40
2023-05-03T02:19:53.963Z,77.02
2023-05-03T02:22:21.496Z,77.75
2023-05-03T02:24:49.045Z,78.44
2023-05-03T02:27:17.129Z,79.40
2023-05-03T02:29:44.658Z,80.04
2023-05-03T02:32:13.513Z,80.21
2023-05-03T02:34:41.413Z,79.34
2023-05-03T02:37:09.000Z,79.29
2023-05-03T02:39:36.592Z,79.67
2023-05-03T02:42:04.470Z,79.06
2023-05-03T02:44:33.628Z,77.33
2023-05-03T02:47:01.295Z,77.29
2023-05-03T02:49:30.250Z,76.99
2023-05-03T02:51:58.010Z,76.56
2023-05-03T02:54:25.515Z,76.31
2023-05-03T02:56:53.063Z,76.34
2023-05-03T02:59:20.939Z,76.65
2023-05-03T03:01:48.522Z,76.82
2023-05-03T03:04:16.068Z,76.51
2023-05-03T03:06:44.935Z,76.56
2023-05-03T03:09:13.478Z,76.29
2023-05-03T03:11:41.781Z,76.14
2023-05-03T03:14:09.286Z,75.96
2023-05-03T03:16:36.986Z,76.55
2023-05-03T03:19:04.588Z,77.38
2023-05-03T03:21:32.623Z,78.42
2023-05-03T03:24:01.502Z,77.51
2023-05-03T03:26:29.017Z,78.01
2023-05-03T03:28:56.543Z,77.39
2023-05-03T03:31:25.590Z,76.83
2023-05-03T03:33:53.183Z,76.71
2023-05-03T03:36:20.939Z,76.75
2023-05-03T03:38:48.607Z,77.63
2023-05-03T03:41:17.577Z,79.19
2023-05-03T03:43:45.291Z,79.56
2023-05-03T03:46:12.888Z,77.80
2023-05-03T03:48:40.383Z,76.81
2023-05-03T03:51:07.986Z,77.98
2023-05-03T03:53:35.535Z,79.42
2023-05-03T03:56:03.003Z,79.25
2023-05-03T03:58:31.894Z,79.43
2023-05-03T04:01:00.499Z,80.09
2023-05-03T04:03:28.116Z,78.71
2023-05-03T04:05:55.776Z,78.14
2023-05-03T04:08:23.315Z,78.67
2023-05-03T04:10:51.635Z,77.73
2023-05-03T04:13:19.150Z,77.19
2023-05-03T04:15:48.013Z,77.92
2023-05-03T04:18:15.567Z,78.66
2023-05-03T04:20:43.079Z,79.02
2023-05-03T04:23:10.545Z,78.86
2023-05-03T04:25:38.736Z,78.41
2023-05-03T04:28:06.760Z,78.07
2023-05-03T04:30:35.730Z,77.86
2023-05-03T04:33:04.869Z,76.92
2023-05-03T04:35:32.438Z,76.26
2023-05-03T04:37:59.939Z,75.30
2023-05-03T04:40:27.508Z,75.36
2023-05-03T04:42:55.717Z,75.80
2023-05-03T04:45:23.390Z,77.44
2023-05-03T04:47:50.921Z,77.46
2023-05-03T04:50:19.999Z,77.67
2023-05-03T04:52:47.934Z,78.56
2023-05-03T04:55:15.505Z,79.63
2023-05-03T04:57:43.569Z,79.55
2023-05-03T05:00:12.379Z,80.25
2023-05-03T05:02:40.049Z,80.26
2023-05-03T05:05:09.310Z,80.50
2023-05-03T05:07:38.218Z,80.42
2023-05-03T05:10:06.804Z,79.96
2023-05-03T05:12:34.572Z,79.59
2023-05-03T05:15:02.096Z,79.31
2023-05-03T05:17:30.071Z,80.05
2023-05-03T05:19:57.689Z,80.21
2023-05-03T05:22:25.339Z,79.75
2023-05-03T05:24:54.247Z,80.31
2023-05-03T05:27:21.747Z,80.56
2023-05-03T05:29:49.293Z,80.37
2023-05-03T05:32:16.809Z,80.68
2023-05-03T05:34:45.803Z,80.93
2023-05-03T05:37:13.509Z,80.86
2023-05-03T05:39:41.160Z,81.77
2023-05-03T05:42:10.031Z,81.77
2023-05-03T05:44:37.569Z,81.24
2023-05-03T05:47:08.160Z,80.51
2023-05-03T05:49:36.397Z,80.71
2023-05-03T05:52:03.975Z,80.58
2023-05-03T05:54:31.581Z,79.74
2023-05-03T05:56:59.388Z,79.25
2023-05-03T05:59:29.536Z,78.88
2023-05-03T06:01:57.416Z,78.33
2023-05-03T06:04:24.965Z,77.86
2023-05-03T06:06:52.690Z,78.09
2023-05-03T06:09:24.717Z,77.45
2023-05-03T06:11:52.839Z,77.03
2023-05-03T06:14:20.653Z,78.04
2023-05-03T06:16:49.584Z,78.39
2023-05-03T06:19:17.072Z,78.04
2023-05-03T06:21:44.583Z,77.58
2023-05-03T06:24:12.178Z,78.09
2023-05-03T06:26:39.698Z,78.78
2023-05-03T06:29:07.204Z,79.91
2023-05-03T06:31:34.776Z,76.52
2023-05-03T06:34:03.688Z,72.74
2023-05-03T06:36:32.406Z,71.19
2023-05-03T06:39:00.140Z,70.10
2023-05-03T06:41:27.650Z,70.56
2023-05-03T06:43:55.138Z,72.11
2023-05-03T06:46:22.637Z,72.55
2023-05-03T06:48:50.226Z,73.38
2023-05-03T06:51:19.155Z,73.10
2023-05-03T06:53:46.984Z,72.98
2023-05-03T06:56:14.453Z,73.18
2023-05-03T06:58:41.936Z,72.77
2023-05-03T07:01:09.523Z,73.54
2023-05-03T07:03:41.480Z,72.90
2023-05-03T07:06:09.472Z,72.81
2023-05-03T07:08:38.356Z,70.75
2023-05-03T07:11:05.942Z,72.34
2023-05-03T07:13:33.571Z,71.78
2023-05-03T07:16:03.580Z,72.45
2023-05-03T07:18:31.412Z,71.73
2023-05-03T07:21:01.602Z,70.64
2023-05-03T07:23:29.104Z,70.93
2023-05-03T07:25:57.944Z,70.33
2023-05-03T07:28:25.509Z,70.45
2023-05-03T07:30:53.179Z,70.93
2023-05-03T07:33:20.934Z,70.36
2023-05-03T07:35:49.052Z,71.23
2023-05-03T07:38:16.546Z,72.39
2023-05-03T07:40:44.288Z,71.89
2023-05-03T07:43:13.207Z,72.55
2023-05-03T07:45:40.834Z,71.61
2023-05-03T07:48:08.556Z,70.44
2023-05-03T07:50:36.119Z,70.48
2023-05-03T07:53:03.661Z,69.35
2023-05-03T07:55:32.798Z,70.88
2023-05-03T07:58:00.536Z,72.25
2023-05-03T08:00:29.695Z,72.89
2023-05-03T08:02:57.538Z,71.52
2023-05-03T08:05:25.317Z,72.77
2023-05-03T08:07:53.306Z,72.10
2023-05-03T08:10:21.218Z,71.99
2023-05-03T08:12:48.892Z,71.88
2023-05-03T08:15:16.418Z,71.96
2023-05-03T08:17:46.688Z,71.57
2023-05-03T08:20:16.241Z,71.19
2023-05-03T08:22:46.295Z,71.25
2023-05-03T08:25:14.224Z,72.01
2023-05-03T08:27:41.757Z,70.95
2023-05-03T08:30:10.605Z,71.14
2023-05-03T08:32:38.225Z,70.07
2023-05-03T08:35:08.611Z,70.54
2023-05-03T08:37:40.727Z,70.58
2023-05-03T08:40:10.198Z,71.00
2023-05-03T08:42:40.679Z,69.49
2023-05-03T08:45:11.873Z,70.30
2023-05-03T08:47:40.676Z,70.66
2023-05-03T08:50:11.962Z,69.37
2023-05-03T08:52:42.394Z,70.35
2023-05-03T08:55:11.590Z,69.45
2023-05-03T08:57:39.398Z,69.46
2023-05-03T09:00:10.536Z,68.11
2023-05-03T09:02:39.770Z,68.09
2023-05-03T09:05:36.536Z,67.08
2023-05-03T09:08:06.223Z,69.48
2023-05-03T09:10:34.724Z,66.56
2023-05-03T09:13:03.294Z,68.87
2023-05-03T09:15:31.444Z,67.94
2023-05-03T09:18:10.046Z,68.30
2023-05-03T09:20:40.868Z,67.61
2023-05-03T09:23:09.413Z,66.59
2023-05-03T09:25:47.592Z,66.47
2023-05-03T09:28:15.709Z,67.65
2023-05-03T09:30:43.468Z,68.26
2023-05-03T09:33:11.477Z,67.01
2023-05-03T09:35:57.119Z,68.52
2023-05-03T09:38:29.011Z,68.16
2023-05-03T09:40:56.866Z,66.97
2023-05-03T09:43:24.461Z,66.23
2023-05-03T09:45:52.297Z,66.20
2023-05-03T09:48:23.395Z,65.45
2023-05-03T09:50:52.728Z,65.20
2023-05-03T09:53:22.309Z,64.47
2023-05-03T09:55:51.147Z,64.90
2023-05-03T09:58:20.608Z,64.10
2023-05-03T10:00:52.484Z,64.83
2023-05-03T10:03:25.515Z,63.54
2023-05-03T10:05:55.505Z,62.64
2023-05-03T10:08:29.058Z,62.63
2023-05-03T10:10:56.774Z,61.91
2023-05-03T10:13:25.332Z,62.39
2023-05-03T10:16:00.872Z,61.23
2023-05-03T10:18:32.854Z,59.70
2023-05-03T10:21:05.196Z,59.16
2023-05-03T10:23:32.755Z,59.33
2023-05-03T10:26:16.653Z,58.92
2023-05-03T10:28:45.689Z,58.34
2023-05-03T10:31:44.948Z,60.73
2023-05-03T10:34:23.511Z,58.04
2023-05-03T10:36:54.260Z,57.41
2023-05-03T10:39:22.299Z,58.23
2023-05-03T10:42:01.064Z,56.65
2023-05-03T10:44:30.625Z,58.27
2023-05-03T10:46:58.436Z,55.83
2023-05-03T10:49:27.196Z,57.15
2023-05-03T10:51:57.713Z,56.79
2023-05-03T10:54:26.397Z,56.56
2023-05-03T10:56:56.272Z,56.20
2023-05-03T10:59:25.470Z,57.08
2023-05-03T11:01:54.375Z,55.35
2023-05-03T11:04:33.379Z,55.73
2023-05-03T11:07:02.901Z,55.90
2023-05-03T11:09:36.653Z,55.46
2023-05-03T11:12:08.420Z,57.78
2023-05-03T11:14:35.872Z,54.62
2023-05-03T11:17:03.592Z,55.51
2023-05-03T11:19:31.547Z,56.52
2023-05-03T11:21:59.409Z,55.84
2023-05-03T11:24:28.314Z,55.17
2023-05-03T11:26:55.904Z,53.84
2023-05-03T11:29:26.021Z,54.15
2023-05-03T11:31:53.956Z,53.53
2023-05-03T11:34:21.661Z,52.10
2023-05-03T11:36:49.298Z,53.52
2023-05-03T11:39:18.762Z,54.21
2023-05-03T11:42:02.622Z,52.50
2023-05-03T11:44:30.474Z,51.18
2023-05-03T11:46:58.244Z,50.71
2023-05-03T11:49:25.821Z,50.20
2023-05-03T11:51:54.833Z,50.17
2023-05-03T11:54:27.094Z,49.29
2023-05-03T11:56:58.779Z,48.21
2023-05-03T11:59:36.991Z,51.74
2023-05-03T12:02:05.326Z,49.84
2023-05-03T12:04:33.606Z,51.67
2023-05-03T12:07:02.732Z,49.49
2023-05-03T12:09:31.760Z,51.03
2023-05-03T12:12:02.900Z,50.57
2023-05-03T12:14:58.285Z,49.70
2023-05-03T12:17:37.837Z,50.39
2023-05-03T12:21:05.008Z,47.51
2023-05-03T12:23:09.196Z,48.76
2023-05-03T12:25:39.513Z,47.14
2023-05-03T12:30:40.628Z,48.65
2023-05-03T12:33:10.096Z,49.07
2023-05-03T12:35:40.559Z,48.97
2023-05-03T12:38:09.802Z,47.20
2023-05-03T12:40:39.151Z,48.17
2023-05-03T12:43:07.246Z,47.39
2023-05-03T12:45:38.808Z,46.84
2023-05-03T12:48:08.197Z,47.56
2023-05-03T12:50:38.543Z,45.18
2023-05-03T12:53:09.773Z,44.82
2023-05-03T12:55:43.153Z,47.26
2023-05-03T12:58:45.756Z,46.32
2023-05-03T13:01:37.833Z,47.06
2023-05-03T13:06:19.280Z,43.16
2023-05-03T13:08:50.223Z,45.88
2023-05-03T13:11:20.279Z,45.81
2023-05-03T13:13:47.961Z,45.73
2023-05-03T13:16:17.002Z,45.15
2023-05-03T13:18:45.625Z,42.66
2023-05-03T13:21:13.541Z,42.46
2023-05-03T13:23:41.093Z,40.73
2023-05-03T13:26:08.577Z,38.74
2023-05-03T13:28:36.200Z,38.81
2023-05-03T13:31:03.927Z,38.67
2023-05-03T13:33:32.811Z,39.82
2023-05-03T13:36:00.441Z,40.57
2023-05-03T13:38:27.958Z,38.71
2023-05-03T13:40:55.586Z,36.84
2023-05-03T13:43:23.176Z,38.84
2023-05-03T13:45:52.525Z,39.41
2023-05-03T13:48:20.174Z,42.86
2023-05-03T13:50:49.200Z,41.00
2023-05-03T13:53:17.269Z,40.86
2023-05-03T13:55:44.808Z,38.43
2023-05-03T13:58:12.681Z,39.48
2023-05-03T14:00:40.269Z,40.52
2023-05-03T14:03:08.225Z,41.06
2023-05-03T14:05:36.146Z,40.33
2023-05-03T14:08:05.658Z,39.55
2023-05-03T14:10:35.438Z,36.62
2023-05-03T14:13:03.514Z,37.55
2023-05-03T14:15:31.427Z,34.64
2023-05-03T14:18:02.004Z,35.35
2023-05-03T14:20:31.333Z,35.89
2023-05-03T14:22:58.888Z,37.08
2023-05-03T14:25:28.569Z,39.17
2023-05-03T14:27:56.321Z,39.40
2023-05-03T14:30:24.012Z,37.60
2023-05-03T14:32:52.367Z,36.58
2023-05-03T14:35:20.117Z,38.92
2023-05-03T14:37:47.818Z,40.34
2023-05-03T14:40:17.122Z,40.65
2023-05-03T14:42:45.988Z,40.29
2023-05-03T14:45:14.809Z,41.00
2023-05-03T14:47:42.820Z,41.27
2023-05-03T14:50:11.142Z,41.78
2023-05-03T14:52:38.713Z,39.67
2023-05-03T14:55:07.688Z,40.43
2023-05-03T14:57:36.235Z,37.49
2023-05-03T15:00:07.511Z,39.75
2023-05-03T15:02:35.392Z,41.14
2023-05-03T15:05:04.443Z,40.91
2023-05-03T15:07:32.468Z,42.23
2023-05-03T15:10:03.806Z,40.30
2023-05-03T15:12:31.725Z,41.94
2023-05-03T15:14:59.624Z,36.94
2023-05-03T15:17:28.542Z,37.59
2023-05-03T15:19:56.137Z,36.96
2023-05-03T15:22:23.654Z,37.19
2023-05-03T15:24:51.198Z,37.09
2023-05-03T15:27:18.679Z,39.67
2023-05-03T15:29:46.227Z,39.19
2023-05-03T15:32:13.981Z,38.44
2023-05-03T15:34:42.896Z,39.33
2023-05-03T15:37:12.086Z,38.69
2023-05-03T15:39:39.911Z,40.08
2023-05-03T15:42:07.527Z,38.74
2023-05-03T15:44:35.061Z,39.87
2023-05-03T15:47:02.787Z,41.34
2023-05-03T15:49:30.316Z,41.50
2023-05-03T15:51:59.189Z,41.35
2023-05-03T15:54:26.678Z,41.22
2023-05-03T15:56:55.104Z,38.72
2023-05-03T15:59:22.600Z,39.03
2023-05-03T16:01:51.040Z,39.58
2023-05-03T16:04:18.613Z,40.21
2023-05-03T16:06:46.089Z,41.56
2023-05-03T16:09:15.967Z,39.95
2023-05-03T16:11:43.544Z,39.52
2023-05-03T16:14:11.142Z,41.47
2023-05-03T16:16:40.229Z,41.72
2023-05-03T16:19:08.671Z,40.09
2023-05-03T16:21:36.197Z,40.86
2023-05-03T16:24:04.703Z,40.99
2023-05-03T16:26:34.602Z,41.08
2023-05-03T16:29:02.129Z,41.37
2023-05-03T16:31:30.680Z,38.86
2023-05-03T16:33:58.471Z,40.14
2023-05-03T16:36:26.081Z,38.17
2023-05-03T16:38:53.612Z,39.50
2023-05-03T16:41:21.227Z,39.92
2023-05-03T16:43:50.086Z,39.37
2023-05-03T16:46:17.669Z,41.11
2023-05-03T16:48:45.222Z,40.01
2023-05-03T16:51:12.736Z,39.92
2023-05-03T16:53:41.388Z,41.36
2023-05-03T16:56:09.000Z,40.32
2023-05-03T16:58:36.542Z,41.63
2023-05-03T17:01:07.643Z,40.99
2023-05-03T17:03:35.562Z,41.19
2023-05-03T17:06:03.851Z,41.08
2023-05-03T17:08:31.632Z,42.99
2023-05-03T17:11:01.392Z,42.66
2023-05-03T17:13:28.944Z,42.25
2023-05-03T17:15:56.558Z,42.62
2023-05-03T17:18:25.456Z,44.15
2023-05-03T17:20:53.139Z,44.33
2023-05-03T17:23:20.771Z,45.07
2023-05-03T17:25:48.353Z,45.10
2023-05-03T17:28:16.091Z,45.22
2023-05-03T17:30:43.692Z,45.47
2023-05-03T17:33:11.256Z,44.78
2023-05-03T17:35:40.215Z,44.80
2023-05-03T17:38:07.818Z,44.84
2023-05-03T17:40:36.608Z,44.32
2023-05-03T17:43:04.109Z,44.50
2023-05-03T17:45:31.629Z,44.77
2023-05-03T17:47:59.645Z,44.67
2023-05-03T17:50:27.347Z,43.84
2023-05-03T17:52:57.338Z,45.07
2023-05-03T17:55:25.103Z,45.85
2023-05-03T17:57:52.849Z,46.14
2023-05-03T18:00:25.131Z,45.65
2023-05-03T18:02:52.755Z,46.04
2023-05-03T18:05:20.671Z,46.69
2023-05-03T18:07:48.244Z,46.28
2023-05-03T18:10:17.914Z,46.71
2023-05-03T18:12:45.535Z,46.56
2023-05-03T18:15:15.061Z,46.65
2023-05-03T18:17:42.888Z,46.89
2023-05-03T18:20:10.922Z,47.07
2023-05-03T18:22:38.757Z,47.08
2023-05-03T18:25:07.801Z,47.28
2023-05-03T18:27:37.730Z,47.68
2023-05-03T18:30:06.878Z,48.07
2023-05-03T18:32:35.011Z,48.02
2023-05-03T18:35:03.506Z,47.13
2023-05-03T18:37:31.216Z,46.81
2023-05-03T18:39:58.742Z,46.92
2023-05-03T18:42:26.391Z,46.63
2023-05-03T18:44:55.280Z,49.42
2023-05-03T18:47:23.018Z,48.33
2023-05-03T18:49:52.538Z,47.80
2023-05-03T18:52:20.526Z,48.73
2023-05-03T18:54:49.538Z,49.49
2023-05-03T18:57:17.593Z,48.28
2023-05-03T18:59:56.527Z,49.86
2023-05-03T19:02:30.568Z,51.20
2023-05-03T19:04:58.582Z,49.15
2023-05-03T19:07:26.166Z,48.03
2023-05-03T19:09:54.651Z,48.53
2023-05-03T19:12:22.226Z,48.28
2023-05-03T19:14:49.922Z,50.03
2023-05-03T19:17:17.681Z,50.71
2023-05-03T19:19:46.557Z,50.34
2023-05-03T19:22:14.683Z,50.50
2023-05-03T19:24:43.795Z,52.54
2023-05-03T19:27:11.929Z,51.99
2023-05-03T19:29:39.468Z,54.96
2023-05-03T19:32:07.156Z,54.10
2023-05-03T19:34:35.270Z,52.25
2023-05-03T19:37:04.979Z,51.41
2023-05-03T19:39:35.544Z,51.09
2023-05-03T19:42:03.920Z,52.40
2023-05-03T19:44:31.790Z,52.31
2023-05-03T19:46:59.357Z,52.84
2023-05-03T19:49:27.497Z,52.41
2023-05-03T19:51:55.836Z,52.67
2023-05-03T19:54:24.785Z,53.66
2023-05-03T19:56:52.447Z,53.50
2023-05-03T19:59:20.004Z,54.80
2023-05-03T20:01:47.915Z,54.39
2023-05-03T20:04:15.590Z,55.20
2023-05-03T20:06:43.302Z,54.56
2023-05-03T20:09:10.962Z,54.01
2023-05-03T20:11:40.006Z,55.00
2023-05-03T20:14:08.067Z,56.39
2023-05-03T20:16:38.970Z,55.66
2023-05-03T20:19:06.786Z,55.83
2023-05-03T20:21:34.338Z,56.99
2023-05-03T20:24:02.855Z,58.08
2023-05-03T20:26:30.345Z,58.19
2023-05-03T20:28:59.586Z,55.07
2023-05-03T20:31:27.151Z,52.57
2023-05-03T20:33:54.683Z,52.03
2023-05-03T20:36:22.418Z,52.91
2023-05-03T20:38:49.956Z,54.73
2023-05-03T20:41:18.252Z,55.64
2023-05-03T20:43:45.769Z,57.07
2023-05-03T20:46:14.721Z,57.60
2023-05-03T20:48:42.475Z,55.90
2023-05-03T20:51:10.236Z,54.30
2023-05-03T20:53:37.848Z,52.90
2023-05-03T20:56:07.774Z,52.22
2023-05-03T20:58:35.453Z,53.89
2023-05-03T21:01:05.258Z,56.08
2023-05-03T21:03:35.292Z,57.08
2023-05-03T21:06:05.437Z,57.37
2023-05-03T21:08:33.066Z,58.58
2023-05-03T21:11:00.623Z,59.41
2023-05-03T21:13:28.154Z,59.81
2023-05-03T21:15:56.178Z,60.25
2023-05-03T21:18:24.721Z,61.39
2023-05-03T21:20:54.991Z,58.76
2023-05-03T21:23:22.491Z,56.53
2023-05-03T21:25:49.993Z,57.74
2023-05-03T21:28:17.516Z,59.25
2023-05-03T21:30:48.088Z,60.44
2023-05-03T21:33:15.613Z,60.31
2023-05-03T21:35:43.491Z,60.53
2023-05-03T21:38:12.392Z,61.13
2023-05-03T21:40:39.921Z,61.75
2023-05-03T21:43:09.071Z,60.98
2023-05-03T21:45:36.621Z,61.49
2023-05-03T21:48:04.433Z,60.87
2023-05-03T21:50:32.057Z,61.88
2023-05-03T21:52:59.562Z,61.95
2023-05-03T21:55:28.830Z,61.15
2023-05-03T21:57:56.357Z,61.09
2023-05-03T22:00:25.043Z,60.97
2023-05-03T22:02:52.819Z,62.16
2023-05-03T22:05:20.424Z,62.35
2023-05-03T22:07:48.358Z,62.07
2023-05-03T22:10:16.274Z,62.44
2023-05-03T22:12:45.230Z,62.92
2023-05-03T22:15:13.076Z,63.10
2023-05-03T22:17:40.702Z,62.92
2023-05-03T22:20:10.266Z,63.97
2023-05-03T22:22:37.810Z,64.66
2023-05-03T22:25:06.608Z,64.04
2023-05-03T22:27:34.137Z,64.10
2023-05-03T22:30:03.256Z,63.41
2023-05-03T22:32:31.037Z,63.50
2023-05-03T22:34:58.561Z,64.61
2023-05-03T22:37:26.249Z,63.16
2023-05-03T22:39:53.747Z,62.95
2023-05-03T22:42:21.502Z,62.54
2023-05-03T22:44:49.015Z,62.51
2023-05-03T22:47:17.957Z,63.97
2023-05-03T22:49:45.504Z,64.42
2023-05-03T22:52:13.094Z,63.73
2023-05-03T22:54:40.633Z,64.03
2023-05-03T22:57:08.156Z,63.74
2023-05-03T22:59:35.752Z,64.23
2023-05-03T23:02:03.844Z,64.93
2023-05-03T23:04:32.785Z,64.43
2023-05-03T23:07:00.855Z,64.55
2023-05-03T23:09:28.782Z,64.42
2023-05-03T23:11:56.551Z,64.76
2023-05-03T23:14:24.073Z,65.34
2023-05-03T23:16:51.644Z,65.58
2023-05-03T23:19:19.624Z,65.85
2023-05-03T23:21:48.942Z,68.34
2023-05-03T23:24:17.167Z,66.81
2023-05-03T23:26:44.689Z,66.96
2023-05-03T23:29:12.654Z,66.52
2023-05-03T23:31:40.239Z,66.32
2023-05-03T23:34:08.215Z,66.41
2023-05-03T23:36:35.763Z,66.63
2023-05-03T23:39:04.813Z,67.21
2023-05-03T23:41:33.798Z,68.69
2023-05-03T23:44:01.515Z,68.04
2023-05-03T23:46:29.100Z,67.48
2023-05-03T23:48:56.655Z,67.48
2023-05-03T23:51:24.843Z,66.60
2023-05-03T23:53:52.743Z,66.01
2023-05-03T23:56:21.589Z,66.01
2023-05-03T23:58:49.090Z,65.84
